createdAt,value
2022-08-19T11:31:52.158Z,45.95
2022-08-19T11:32:13.228Z,45.22
2022-08-19T11:32:34.291Z,44.60
2022-08-19T11:32:55.342Z,44.89
2022-08-19T11:33:16.388Z,44.92
2022-08-19T11:33:37.448Z,45.24
2022-08-19T11:33:58.534Z,45.42
2022-08-19T11:34:19.609Z,45.25
2022-08-19T11:34:40.688Z,44.92
2022-08-19T11:35:01.761Z,44.35
2022-08-19T11:35:22.813Z,44.55
2022-08-19T11:35:43.863Z,44.30
2022-08-19T11:36:04.927Z,43.82
2022-08-19T11:36:25.980Z,44.00
2022-08-19T11:36:47.031Z,44.15
2022-08-19T11:37:08.104Z,44.19
2022-08-19T11:37:29.153Z,43.67
2022-08-19T11:37:50.206Z,43.19
2022-08-19T11:38:11.250Z,43.87
2022-08-19T11:38:32.301Z,43.70
2022-08-19T11:38:53.352Z,43.19
2022-08-19T11:39:14.409Z,42.85
2022-08-19T11:39:35.504Z,42.89
2022-08-19T11:39:56.567Z,42.11
2022-08-19T11:40:17.658Z,42.03
2022-08-19T11:40:38.723Z,42.47
2022-08-19T11:40:59.781Z,42.34
2022-08-19T11:41:20.837Z,42.28
2022-08-19T11:41:41.878Z,42.30
2022-08-19T11:42:02.945Z,42.79
2022-08-19T11:42:23.992Z,42.93
2022-08-19T11:42:45.049Z,43.27
2022-08-19T11:43:06.115Z,43.49
2022-08-19T11:43:27.194Z,43.46
2022-08-19T11:43:48.259Z,42.99
2022-08-19T11:44:09.307Z,42.70
2022-08-19T11:44:30.375Z,43.09
2022-08-19T11:44:51.414Z,43.67
2022-08-19T11:45:12.532Z,43.85
2022-08-19T11:45:33.607Z,43.51
2022-08-19T11:45:54.670Z,42.99
2022-08-19T11:46:15.751Z,43.20
2022-08-19T11:46:36.779Z,43.20
2022-08-19T11:46:57.840Z,43.95
2022-08-19T11:47:24.822Z,43.76
2022-08-19T11:47:45.871Z,43.85
2022-08-19T11:48:06.941Z,44.05
2022-08-19T11:48:27.992Z,43.12
2022-08-19T11:48:49.069Z,42.72
2022-08-19T11:49:13.830Z,42.64
2022-08-19T11:49:35.236Z,42.86
2022-08-19T11:49:56.303Z,42.86
2022-08-19T11:50:17.371Z,42.53
2022-08-19T11:50:38.446Z,42.84
2022-08-19T11:51:00.263Z,43.16
2022-08-19T11:51:21.331Z,43.05
2022-08-19T11:51:42.395Z,43.16
2022-08-19T11:52:03.508Z,42.68
2022-08-19T11:52:24.570Z,42.58
2022-08-19T11:52:45.640Z,42.65
2022-08-19T11:53:06.689Z,43.24
2022-08-19T11:53:31.043Z,43.26
2022-08-19T11:53:52.096Z,43.19
2022-08-19T11:54:13.158Z,42.97
2022-08-19T11:54:34.216Z,43.27
2022-08-19T11:54:55.257Z,43.42
2022-08-19T11:55:16.336Z,43.68
2022-08-19T11:55:37.625Z,43.36
2022-08-19T11:56:04.792Z,43.45
2022-08-19T11:56:25.848Z,43.29
2022-08-19T11:56:46.943Z,43.53
2022-08-19T11:57:07.995Z,43.76
2022-08-19T11:57:29.053Z,43.57
2022-08-19T11:57:50.189Z,43.65
2022-08-19T11:58:18.985Z,44.06
2022-08-19T11:58:38.235Z,44.08
2022-08-19T11:58:59.299Z,43.87
2022-08-19T11:59:20.358Z,43.66
2022-08-19T11:59:41.420Z,43.34
2022-08-19T12:00:02.483Z,43.42
2022-08-19T12:00:23.549Z,43.69
2022-08-19T12:00:44.624Z,44.03
2022-08-19T12:01:05.792Z,44.13
2022-08-19T12:01:26.856Z,44.26
2022-08-19T12:01:47.897Z,43.76
2022-08-19T12:02:08.957Z,43.78
2022-08-19T12:02:30.038Z,44.06
2022-08-19T12:02:51.098Z,44.00
2022-08-19T12:03:12.169Z,44.53
2022-08-19T12:03:33.258Z,44.68
2022-08-19T12:03:54.344Z,44.24
2022-08-19T12:04:15.444Z,43.51
2022-08-19T12:04:36.484Z,43.93
2022-08-19T12:04:57.538Z,43.74
2022-08-19T12:05:18.877Z,43.72
2022-08-19T12:05:39.875Z,43.68
2022-08-19T12:06:01.042Z,43.80
2022-08-19T12:06:22.097Z,43.64
2022-08-19T12:06:43.148Z,43.50
2022-08-19T12:07:04.213Z,43.73
2022-08-19T12:07:25.260Z,43.42
2022-08-19T12:07:46.330Z,43.09
2022-08-19T12:08:07.394Z,43.27
2022-08-19T12:08:28.464Z,43.46
2022-08-19T12:08:49.517Z,43.34
2022-08-19T12:09:10.585Z,43.06
2022-08-19T12:09:31.649Z,42.96
2022-08-19T12:09:52.714Z,43.13
2022-08-19T12:10:13.775Z,43.45
2022-08-19T12:10:40.757Z,43.10
2022-08-19T12:11:01.986Z,42.95
2022-08-19T12:11:23.084Z,43.15
2022-08-19T12:11:44.137Z,42.71
2022-08-19T12:12:05.181Z,42.58
2022-08-19T12:12:26.260Z,42.36
2022-08-19T12:12:47.471Z,42.55
2022-08-19T12:13:14.303Z,41.88
2022-08-19T12:13:35.370Z,41.85
2022-08-19T12:13:56.446Z,42.05
2022-08-19T12:14:17.517Z,42.15
2022-08-19T12:14:39.704Z,42.12
2022-08-19T12:15:00.785Z,42.06
2022-08-19T12:15:21.853Z,42.19
2022-08-19T12:15:42.913Z,42.47
2022-08-19T12:16:03.973Z,42.78
2022-08-19T12:16:25.044Z,42.53
2022-08-19T12:16:51.108Z,42.49
2022-08-19T12:17:13.149Z,42.66
2022-08-19T12:17:34.951Z,42.66
2022-08-19T12:17:56.046Z,42.45
2022-08-19T12:18:17.084Z,42.00
2022-08-19T12:18:38.148Z,42.19
2022-08-19T12:18:59.215Z,41.85
2022-08-19T12:19:21.879Z,41.53
2022-08-19T12:19:43.579Z,41.42
2022-08-19T12:20:04.625Z,41.31
2022-08-19T12:20:25.693Z,41.27
2022-08-19T12:20:46.764Z,41.15
2022-08-19T12:21:07.823Z,41.06
2022-08-19T12:21:28.883Z,40.04
2022-08-19T12:21:49.983Z,39.95
2022-08-19T12:22:11.023Z,40.03
2022-08-19T12:22:32.076Z,39.58
2022-08-19T12:22:53.129Z,39.78
2022-08-19T12:23:14.169Z,40.38
2022-08-19T12:23:35.256Z,40.54
2022-08-19T12:23:56.304Z,41.12
2022-08-19T12:24:17.355Z,40.97
2022-08-19T12:24:38.424Z,41.14
2022-08-19T12:24:59.474Z,41.46
2022-08-19T12:25:20.529Z,41.45
2022-08-19T12:25:44.776Z,41.29
2022-08-19T12:26:05.823Z,41.31
2022-08-19T12:26:26.883Z,41.39
2022-08-19T12:26:53.383Z,41.51
2022-08-19T12:27:14.971Z,41.09
2022-08-19T12:27:44.547Z,41.33
2022-08-19T12:28:08.936Z,41.25
2022-08-19T12:28:29.999Z,41.60
2022-08-19T12:28:51.046Z,41.50
2022-08-19T12:29:12.121Z,41.39
2022-08-19T12:29:33.175Z,41.77
2022-08-19T12:29:54.230Z,41.27
2022-08-19T12:30:15.291Z,41.62
2022-08-19T12:30:36.328Z,41.75
2022-08-19T12:30:57.371Z,40.94
2022-08-19T12:31:18.418Z,40.97
2022-08-19T12:31:39.523Z,40.54
2022-08-19T12:32:00.589Z,40.68
2022-08-19T12:32:21.639Z,40.53
2022-08-19T12:32:42.706Z,40.58
2022-08-19T12:33:03.765Z,40.52
2022-08-19T12:33:24.835Z,40.19
2022-08-19T12:33:45.891Z,40.44
2022-08-19T12:34:06.932Z,41.08
2022-08-19T12:34:27.984Z,40.79
2022-08-19T12:34:49.062Z,40.82
2022-08-19T12:35:10.139Z,40.45
2022-08-19T12:35:31.168Z,40.55
2022-08-19T12:35:52.222Z,40.38
2022-08-19T12:36:13.289Z,40.42
2022-08-19T12:36:34.343Z,40.91
2022-08-19T12:36:56.454Z,40.79
2022-08-19T12:37:17.525Z,40.49
2022-08-19T12:37:38.583Z,40.53
2022-08-19T12:37:59.902Z,39.74
2022-08-19T12:38:21.111Z,40.11
2022-08-19T12:38:42.351Z,40.28
2022-08-19T12:39:03.423Z,40.00
2022-08-19T12:39:24.471Z,39.96
2022-08-19T12:39:45.622Z,39.82
2022-08-19T12:40:06.762Z,39.98
2022-08-19T12:40:27.819Z,40.49
2022-08-19T12:40:48.874Z,40.62
2022-08-19T12:41:09.937Z,40.17
2022-08-19T12:41:31.011Z,40.09
2022-08-19T12:41:54.789Z,40.19
2022-08-19T12:42:16.197Z,40.39
2022-08-19T12:42:37.250Z,40.58
2022-08-19T12:42:58.309Z,40.82
2022-08-19T12:43:20.749Z,40.63
2022-08-19T12:43:41.823Z,40.29
2022-08-19T12:44:02.898Z,40.43
2022-08-19T12:44:29.128Z,40.59
2022-08-19T12:44:50.774Z,41.10
2022-08-19T12:45:11.833Z,40.93
2022-08-19T12:45:33.112Z,40.31
2022-08-19T12:45:55.051Z,40.47
2022-08-19T12:46:17.896Z,40.99
2022-08-19T12:46:39.296Z,41.25
2022-08-19T12:47:00.951Z,40.89
2022-08-19T12:47:21.969Z,40.63
2022-08-19T12:47:43.041Z,40.80
2022-08-19T12:48:32.856Z,40.96
2022-08-19T12:48:34.705Z,41.11
2022-08-19T12:48:56.089Z,41.20
2022-08-19T12:49:34.386Z,40.98
2022-08-19T12:49:53.365Z,40.09
2022-08-19T12:50:11.306Z,40.12
2022-08-19T12:50:32.349Z,40.63
2022-08-19T12:50:53.406Z,40.63
2022-08-19T12:51:14.478Z,40.85
2022-08-19T12:51:35.531Z,40.48
2022-08-19T12:51:56.597Z,40.42
2022-08-19T12:52:18.322Z,40.78
2022-08-19T12:52:44.647Z,41.04
2022-08-19T12:53:05.699Z,41.03
2022-08-19T12:53:26.752Z,41.40
2022-08-19T12:53:47.808Z,41.58
2022-08-19T12:54:08.874Z,41.51
2022-08-19T12:54:29.943Z,41.06
2022-08-19T12:54:53.837Z,40.81
2022-08-19T12:55:15.245Z,40.56
2022-08-19T12:55:36.295Z,40.92
2022-08-19T12:55:57.338Z,41.29
2022-08-19T12:56:22.388Z,41.17
2022-08-19T12:56:44.292Z,41.30
2022-08-19T12:57:05.379Z,41.46
2022-08-19T12:57:31.927Z,41.31
2022-08-19T12:57:53.701Z,41.14
2022-08-19T12:58:14.797Z,41.50
2022-08-19T12:58:35.873Z,41.15
2022-08-19T12:58:56.938Z,41.41
2022-08-19T12:59:18.011Z,41.25
2022-08-19T12:59:39.068Z,40.99
2022-08-19T13:00:00.145Z,41.41
2022-08-19T13:00:21.186Z,41.51
2022-08-19T13:00:42.277Z,41.31
2022-08-19T13:01:03.407Z,41.51
2022-08-19T13:01:24.449Z,41.13
2022-08-19T13:01:45.505Z,40.83
2022-08-19T13:02:06.570Z,40.58
2022-08-19T13:02:27.630Z,40.62
2022-08-19T13:02:48.686Z,40.63
2022-08-19T13:03:09.734Z,40.80
2022-08-19T13:03:30.801Z,41.01
2022-08-19T13:03:51.849Z,41.01
2022-08-19T13:04:12.918Z,41.13
2022-08-19T13:04:33.984Z,41.09
2022-08-19T13:04:55.043Z,40.89
2022-08-19T13:05:16.104Z,40.66
2022-08-19T13:05:37.156Z,40.54
2022-08-19T13:05:58.206Z,40.65
2022-08-19T13:06:20.262Z,40.62
2022-08-19T13:06:41.501Z,40.68
2022-08-19T13:07:02.560Z,40.70
2022-08-19T13:07:23.605Z,40.69
2022-08-19T13:07:44.661Z,40.66
2022-08-19T13:08:05.714Z,40.72
2022-08-19T13:08:26.787Z,40.71
2022-08-19T13:08:47.850Z,40.60
2022-08-19T13:09:08.926Z,41.12
2022-08-19T13:09:30.064Z,40.65
2022-08-19T13:09:51.085Z,40.53
2022-08-19T13:10:12.163Z,40.15
2022-08-19T13:10:33.228Z,40.11
2022-08-19T13:10:54.297Z,40.20
2022-08-19T13:11:15.398Z,40.29
2022-08-19T13:11:36.482Z,40.52
2022-08-19T13:11:57.528Z,40.70
2022-08-19T13:12:18.583Z,41.12
2022-08-19T13:12:39.670Z,41.42
2022-08-19T13:13:00.741Z,41.52
2022-08-19T13:13:21.792Z,41.34
2022-08-19T13:13:42.847Z,41.33
2022-08-19T13:14:03.905Z,41.55
2022-08-19T13:14:24.975Z,41.52
2022-08-19T13:14:48.063Z,41.36
2022-08-19T13:15:11.423Z,41.36
2022-08-19T13:15:32.583Z,41.48
2022-08-19T13:15:53.636Z,41.20
2022-08-19T13:16:14.710Z,40.90
2022-08-19T13:16:35.785Z,40.91
2022-08-19T13:16:56.856Z,40.63
2022-08-19T13:17:17.923Z,41.26
2022-08-19T13:17:38.993Z,41.13
2022-08-19T13:18:00.085Z,41.21
2022-08-19T13:18:21.139Z,40.89
2022-08-19T13:18:42.380Z,40.55
2022-08-19T13:19:03.454Z,40.62
2022-08-19T13:19:24.527Z,41.12
2022-08-19T13:19:45.607Z,41.16
2022-08-19T13:20:06.714Z,40.72
2022-08-19T13:20:27.717Z,40.54
2022-08-19T13:20:52.788Z,40.68
2022-08-19T13:21:14.138Z,41.01
2022-08-19T13:21:35.184Z,41.38
2022-08-19T13:22:00.267Z,41.53
2022-08-19T13:22:21.513Z,41.01
2022-08-19T13:22:42.568Z,41.18
2022-08-19T13:23:03.656Z,40.58
2022-08-19T13:23:24.704Z,40.98
2022-08-19T13:23:45.764Z,41.09
2022-08-19T13:24:06.843Z,40.90
2022-08-19T13:24:31.425Z,40.81
2022-08-19T13:24:54.874Z,40.98
2022-08-19T13:25:15.944Z,41.34
2022-08-19T13:25:37.008Z,41.17
2022-08-19T13:25:58.089Z,41.12
2022-08-19T13:26:19.289Z,41.22
2022-08-19T13:26:40.561Z,41.26
2022-08-19T13:27:02.208Z,41.41
2022-08-19T13:27:23.258Z,40.79
2022-08-19T13:27:44.626Z,40.50
2022-08-19T13:28:05.872Z,40.26
2022-08-19T13:28:29.204Z,40.13
2022-08-19T13:28:50.490Z,40.43
2022-08-19T13:29:11.568Z,40.89
2022-08-19T13:29:32.616Z,40.64
2022-08-19T13:29:53.652Z,40.71
2022-08-19T13:30:14.709Z,40.75
2022-08-19T13:30:35.774Z,40.58
2022-08-19T13:30:56.834Z,40.69
2022-08-19T13:31:17.913Z,40.23
2022-08-19T13:31:38.973Z,39.99
2022-08-19T13:32:00.037Z,40.32
2022-08-19T13:32:21.747Z,40.49
2022-08-19T13:32:43.167Z,40.30
2022-08-19T13:33:06.018Z,40.55
2022-08-19T13:33:27.192Z,40.05
2022-08-19T13:33:48.269Z,40.20
2022-08-19T13:34:09.309Z,40.24
2022-08-19T13:34:30.727Z,40.04
2022-08-19T13:34:52.304Z,40.05
2022-08-19T13:35:16.683Z,40.27
2022-08-19T13:35:37.991Z,40.40
2022-08-19T13:35:59.070Z,40.63
2022-08-19T13:36:20.130Z,40.48
2022-08-19T13:36:41.182Z,40.52
2022-08-19T13:37:02.242Z,40.63
2022-08-19T13:37:23.293Z,40.42
2022-08-19T13:37:44.359Z,40.28
2022-08-19T13:38:05.416Z,40.28
2022-08-19T13:38:26.614Z,40.31
2022-08-19T13:38:47.669Z,39.95
2022-08-19T13:39:08.714Z,39.58
2022-08-19T13:39:29.805Z,39.84
2022-08-19T13:39:50.947Z,39.92
2022-08-19T13:40:12.079Z,40.66
2022-08-19T13:40:33.128Z,40.63
2022-08-19T14:06:14.258Z,38.17
2022-08-19T14:06:35.329Z,37.74
2022-08-19T14:06:56.393Z,37.69
2022-08-19T14:07:17.459Z,38.44
2022-08-19T14:09:26.623Z,38.98
2022-08-19T14:09:47.608Z,39.73
2022-08-19T14:10:08.970Z,40.02
2022-08-19T14:10:30.050Z,39.75
2022-08-19T14:10:51.159Z,39.06
2022-08-19T14:11:12.215Z,38.36
2022-08-19T14:11:33.288Z,37.73
2022-08-19T14:11:54.332Z,37.22
2022-08-19T14:12:15.400Z,37.01
2022-08-19T14:12:42.366Z,36.99
2022-08-19T14:13:03.417Z,36.78
2022-08-19T14:13:24.473Z,36.55
2022-08-19T14:13:45.553Z,36.56
2022-08-19T14:14:06.732Z,37.12
2022-08-19T14:14:27.754Z,38.41
2022-08-19T14:14:48.857Z,38.89
2022-08-19T14:15:09.895Z,38.34
2022-08-19T14:15:31.027Z,38.59
2022-08-19T14:15:52.197Z,37.91
2022-08-19T14:16:13.288Z,37.89
2022-08-19T14:16:34.487Z,37.93
2022-08-19T14:16:55.500Z,38.34
2022-08-19T14:17:16.566Z,37.70
2022-08-19T14:17:37.620Z,37.07
2022-08-19T14:17:58.669Z,36.21
2022-08-19T14:18:19.744Z,35.86
2022-08-19T14:18:40.798Z,36.83
2022-08-19T14:19:01.879Z,38.24
2022-08-19T14:19:22.954Z,38.41
2022-08-19T14:19:44.536Z,38.30
2022-08-19T14:20:11.001Z,38.42
2022-08-19T14:20:32.208Z,38.67
2022-08-19T14:20:53.289Z,38.47
2022-08-19T14:21:14.363Z,37.64
2022-08-19T14:21:39.723Z,37.07
2022-08-19T14:22:02.412Z,36.84
2022-08-19T14:22:23.461Z,36.80
2022-08-19T14:22:44.545Z,36.98
2022-08-19T14:23:05.607Z,37.29
2022-08-19T14:23:26.682Z,37.06
2022-08-19T14:23:47.726Z,36.95
2022-08-19T14:24:08.818Z,36.92
2022-08-19T14:24:29.881Z,36.69
2022-08-19T14:24:50.974Z,36.79
2022-08-19T14:25:12.026Z,36.90
2022-08-19T14:25:33.097Z,36.97
2022-08-19T14:25:54.305Z,36.99
2022-08-19T14:26:15.380Z,36.98
2022-08-19T14:26:36.427Z,36.74
2022-08-19T14:26:57.483Z,36.58
2022-08-19T14:27:18.542Z,36.49
2022-08-19T14:27:39.606Z,36.37
2022-08-19T14:28:00.659Z,36.41
2022-08-19T14:28:21.725Z,36.40
2022-08-19T14:28:48.706Z,36.13
2022-08-19T14:29:09.769Z,35.86
2022-08-19T14:29:30.820Z,35.72
2022-08-19T14:29:51.885Z,35.68
2022-08-19T14:30:12.926Z,35.82
2022-08-19T14:30:33.986Z,35.74
2022-08-19T14:30:55.253Z,35.62
2022-08-19T14:31:17.754Z,35.61
2022-08-19T14:31:38.753Z,35.69
2022-08-19T14:31:59.811Z,35.78
2022-08-19T14:32:20.861Z,35.85
2022-08-19T14:32:41.920Z,35.83
2022-08-19T14:33:02.972Z,35.94
2022-08-19T14:33:24.023Z,35.91
2022-08-19T14:33:49.699Z,35.73
2022-08-19T14:34:10.773Z,35.69
2022-08-19T14:34:31.826Z,35.76
2022-08-19T14:34:52.875Z,35.72
2022-08-19T14:35:13.921Z,35.68
2022-08-19T14:35:34.991Z,35.71
2022-08-19T14:35:59.878Z,35.95
2022-08-19T14:36:21.102Z,36.06
2022-08-19T14:36:42.199Z,36.06
2022-08-19T14:37:03.286Z,36.07
2022-08-19T14:37:25.296Z,35.98
2022-08-19T14:37:46.434Z,35.95
2022-08-19T14:38:07.445Z,36.02
2022-08-19T14:38:31.536Z,36.17
2022-08-19T14:38:52.970Z,36.21
2022-08-19T14:39:14.044Z,36.23
2022-08-19T14:39:35.166Z,36.18
2022-08-19T14:39:57.165Z,36.35
2022-08-19T14:40:18.263Z,36.42
2022-08-19T14:40:39.282Z,36.39
2022-08-19T14:41:00.334Z,36.34
2022-08-19T14:41:21.389Z,36.28
2022-08-19T14:41:42.458Z,36.29
2022-08-19T14:42:06.068Z,36.23
2022-08-19T14:42:29.067Z,36.32
2022-08-19T14:42:50.161Z,36.43
2022-08-19T14:43:11.218Z,36.47
2022-08-19T14:43:32.267Z,36.57
2022-08-19T14:43:53.437Z,36.63
2022-08-19T14:44:14.498Z,36.66
2022-08-19T14:44:35.556Z,36.72
2022-08-19T14:44:56.622Z,36.63
2022-08-19T14:45:17.707Z,36.52
2022-08-19T14:45:38.774Z,36.55
2022-08-19T14:46:01.847Z,36.64
2022-08-19T14:46:22.961Z,36.68
2022-08-19T14:46:49.247Z,36.66
2022-08-19T14:47:10.988Z,36.60
2022-08-19T14:47:32.639Z,36.62
2022-08-19T14:47:53.912Z,36.73
2022-08-19T14:48:19.366Z,36.83
2022-08-19T14:48:42.010Z,36.91
2022-08-19T14:49:09.341Z,36.82
2022-08-19T14:49:34.673Z,36.74
2022-08-19T14:49:57.029Z,36.65
2022-08-19T14:50:18.742Z,36.70
2022-08-19T14:50:39.775Z,36.89
2022-08-19T14:51:00.823Z,36.91
2022-08-19T14:51:21.937Z,36.80
2022-08-19T14:51:43.004Z,36.72
2022-08-19T14:52:04.081Z,36.77
2022-08-19T14:52:25.127Z,36.79
2022-08-19T14:52:46.206Z,36.90
2022-08-19T14:53:09.010Z,37.00
2022-08-19T14:53:34.287Z,36.98
2022-08-19T14:53:55.349Z,36.89
2022-08-19T14:54:16.413Z,36.90
2022-08-19T14:54:37.472Z,36.93
2022-08-19T14:54:58.550Z,36.86
2022-08-19T14:55:19.608Z,36.89
2022-08-19T14:55:40.676Z,36.93
2022-08-19T14:56:02.087Z,36.88
2022-08-19T14:56:23.192Z,36.72
2022-08-19T14:56:44.276Z,36.74
2022-08-19T14:57:05.308Z,36.81
2022-08-19T14:57:26.365Z,36.77
2022-08-19T14:57:47.482Z,36.75
2022-08-19T14:58:08.943Z,36.74
2022-08-19T14:58:30.546Z,36.77
2022-08-19T14:58:51.635Z,36.73
2022-08-19T14:59:12.655Z,36.76
2022-08-19T14:59:33.707Z,36.84
2022-08-19T14:59:54.789Z,36.94
2022-08-19T15:00:15.850Z,36.96
2022-08-19T15:00:36.967Z,36.98
2022-08-19T15:00:58.001Z,37.07
2022-08-19T15:01:19.358Z,36.98
2022-08-19T15:01:40.457Z,36.88
2022-08-19T15:02:20.209Z,37.01
2022-08-19T15:02:34.129Z,37.15
2022-08-19T15:02:55.652Z,37.11
2022-08-19T15:03:16.767Z,37.15
2022-08-19T15:03:37.819Z,37.18
2022-08-19T15:03:58.922Z,37.29
2022-08-19T15:04:19.994Z,37.25
2022-08-19T15:04:41.089Z,37.08
2022-08-19T15:05:02.224Z,36.78
2022-08-19T15:05:23.352Z,36.71
2022-08-19T15:05:44.429Z,36.77
2022-08-19T15:06:05.493Z,36.88
2022-08-19T15:06:26.596Z,36.84
2022-08-19T15:06:47.677Z,36.90
2022-08-19T15:07:08.732Z,36.81
2022-08-19T15:07:29.771Z,36.89
2022-08-19T15:07:50.842Z,36.95
2022-08-19T15:08:11.893Z,36.76
2022-08-19T15:08:32.981Z,36.74
2022-08-19T15:08:54.016Z,36.80
2022-08-19T15:09:15.078Z,37.02
2022-08-19T15:09:36.143Z,37.06
2022-08-19T15:09:57.212Z,37.04
2022-08-19T15:10:18.289Z,37.00
2022-08-19T15:10:39.354Z,37.05
2022-08-19T15:11:00.415Z,37.02
2022-08-19T15:11:21.478Z,36.99
2022-08-19T15:11:42.566Z,37.10
2022-08-19T15:12:03.622Z,37.15
2022-08-19T15:12:24.664Z,37.10
2022-08-19T15:12:52.863Z,37.10
2022-08-19T15:13:12.755Z,37.21
2022-08-19T15:13:33.816Z,37.14
2022-08-19T15:13:55.847Z,37.22
2022-08-19T15:14:16.899Z,37.09
2022-08-19T15:14:37.957Z,36.87
2022-08-19T15:14:59.043Z,36.86
2022-08-19T15:15:20.100Z,36.91
2022-08-19T15:15:41.148Z,37.17
2022-08-19T15:16:02.230Z,37.21
2022-08-19T15:16:23.297Z,37.30
2022-08-19T15:16:44.375Z,37.38
2022-08-19T15:17:05.494Z,37.40
2022-08-19T15:17:32.365Z,37.42
2022-08-19T15:17:53.524Z,37.43
2022-08-19T15:18:14.610Z,37.60
2022-08-19T15:18:35.702Z,37.76
2022-08-19T15:18:56.726Z,37.63
2022-08-19T15:19:18.144Z,37.59
2022-08-19T15:19:39.188Z,37.34
2022-08-19T15:20:00.429Z,37.27
2022-08-19T15:20:21.492Z,37.33
2022-08-19T15:20:42.540Z,37.26
2022-08-19T15:21:07.657Z,37.02
2022-08-19T15:21:28.727Z,36.81
2022-08-19T15:21:49.807Z,36.77
2022-08-19T15:22:10.865Z,36.71
2022-08-19T15:22:31.920Z,36.64
2022-08-19T15:22:52.972Z,36.68
2022-08-19T15:23:14.048Z,36.69
2022-08-19T15:23:35.251Z,36.76
2022-08-19T15:23:56.334Z,36.98
2022-08-19T15:24:17.371Z,37.08
2022-08-19T15:24:48.269Z,37.04
2022-08-19T15:25:06.516Z,36.83
2022-08-19T15:25:27.565Z,36.64
2022-08-19T15:25:48.610Z,36.77
2022-08-19T15:26:13.870Z,36.91
2022-08-19T15:26:36.668Z,37.03
2022-08-19T15:26:57.777Z,36.98
2022-08-19T15:27:18.830Z,37.03
2022-08-19T15:27:39.875Z,37.17
2022-08-19T15:28:00.941Z,37.19
2022-08-19T15:28:22.124Z,37.22
2022-08-19T15:28:43.213Z,37.24
2022-08-19T15:29:04.255Z,37.26
2022-08-19T15:29:25.314Z,37.28
2022-08-19T15:29:46.365Z,37.23
2022-08-19T15:30:07.437Z,37.29
2022-08-19T15:30:28.490Z,37.32
2022-08-19T15:30:49.534Z,37.38
2022-08-19T15:31:25.416Z,37.42
2022-08-19T15:31:38.290Z,37.06
2022-08-19T15:31:59.963Z,36.96
2022-08-19T15:32:22.587Z,36.91
2022-08-19T15:32:48.512Z,36.44
2022-08-19T15:33:10.672Z,36.17
2022-08-19T15:33:31.836Z,36.17
2022-08-19T15:33:52.890Z,36.22
2022-08-19T15:34:14.107Z,36.17
2022-08-19T15:34:35.155Z,36.20
2022-08-19T15:34:56.213Z,36.30
2022-08-19T15:35:17.277Z,36.25
2022-08-19T15:35:38.368Z,36.42
2022-08-19T15:35:59.422Z,36.47
2022-08-19T15:36:20.470Z,36.26
2022-08-19T15:36:41.644Z,36.17
2022-08-19T15:37:02.691Z,36.23
2022-08-19T15:37:23.732Z,36.27
2022-08-19T15:37:44.793Z,36.36
2022-08-19T15:38:05.844Z,36.30
2022-08-19T15:38:26.950Z,36.16
2022-08-19T15:38:48.074Z,35.97
2022-08-19T15:39:09.392Z,35.96
2022-08-19T15:39:30.443Z,36.00
2022-08-19T15:39:51.699Z,36.10
2022-08-19T15:40:12.916Z,35.95
2022-08-19T15:40:34.015Z,35.91
2022-08-19T15:40:55.082Z,35.93
2022-08-19T15:41:16.145Z,35.95
2022-08-19T15:41:37.307Z,36.09
2022-08-19T15:41:58.315Z,35.95
2022-08-19T15:42:29.768Z,35.85
2022-08-19T15:42:46.343Z,35.80
2022-08-19T15:43:07.406Z,35.72
2022-08-19T15:43:28.583Z,35.93
2022-08-19T15:43:49.631Z,36.06
2022-08-19T15:44:10.700Z,36.09
2022-08-19T15:44:31.750Z,36.24
2022-08-19T15:44:52.795Z,36.24
2022-08-19T15:45:15.278Z,36.23
2022-08-19T15:45:36.355Z,36.24
2022-08-19T15:45:57.419Z,36.34
2022-08-19T15:46:18.463Z,36.59
2022-08-19T15:46:39.553Z,36.45
2022-08-19T15:47:00.592Z,36.36
2022-08-19T15:47:21.650Z,36.40
2022-08-19T15:47:42.761Z,36.35
2022-08-19T15:48:03.836Z,36.18
2022-08-19T15:48:24.914Z,35.94
2022-08-19T15:48:56.169Z,35.92
2022-08-19T15:49:13.001Z,35.79
2022-08-19T15:49:34.082Z,35.79
2022-08-19T15:49:58.945Z,35.75
2022-08-19T15:50:22.108Z,35.81
2022-08-19T15:50:43.153Z,35.83
2022-08-19T15:51:04.189Z,35.82
2022-08-19T15:51:25.245Z,35.82
2022-08-19T15:51:46.285Z,35.90
2022-08-19T15:52:07.327Z,35.87
2022-08-19T15:52:28.377Z,35.78
2022-08-19T15:52:50.231Z,35.53
2022-08-19T15:53:11.388Z,35.42
2022-08-19T15:53:32.468Z,35.51
2022-08-19T15:53:53.561Z,35.63
2022-08-19T15:54:14.614Z,35.73
2022-08-19T15:54:35.671Z,35.75
2022-08-19T15:54:56.740Z,35.72
2022-08-19T15:55:32.828Z,35.63
2022-08-19T15:55:44.770Z,35.31
2022-08-19T15:56:05.823Z,35.25
2022-08-19T15:56:27.619Z,35.28
2022-08-19T15:56:57.627Z,35.26
2022-08-19T15:57:15.715Z,35.30
2022-08-19T15:57:36.795Z,35.38
2022-08-19T15:57:57.847Z,35.45
2022-08-19T15:58:20.604Z,35.62
2022-08-19T15:58:45.878Z,35.58
2022-08-19T15:59:07.082Z,35.47
2022-08-19T15:59:28.111Z,35.46
2022-08-19T15:59:49.198Z,35.46
2022-08-19T16:00:11.568Z,35.56
2022-08-19T16:00:32.622Z,35.47
2022-08-19T16:00:53.677Z,35.41
2022-08-19T16:01:14.814Z,35.55
2022-08-19T16:01:40.460Z,35.55
2022-08-19T16:02:02.870Z,35.55
2022-08-19T16:02:23.898Z,35.52
2022-08-19T16:02:53.738Z,35.64
2022-08-19T16:03:14.796Z,35.68
2022-08-19T16:03:35.914Z,35.62
2022-08-19T16:04:02.892Z,35.65
2022-08-19T16:04:24.867Z,35.57
2022-08-19T16:04:45.917Z,35.53
2022-08-19T16:05:06.980Z,35.61
2022-08-19T16:05:28.023Z,35.56
2022-08-19T16:05:49.071Z,35.54
2022-08-19T16:06:10.113Z,35.69
2022-08-19T16:06:31.169Z,35.56
2022-08-19T16:06:52.235Z,35.33
2022-08-19T16:07:13.279Z,35.21
2022-08-19T16:07:34.336Z,35.37
2022-08-19T16:07:55.603Z,35.52
2022-08-19T16:08:16.735Z,35.74
2022-08-19T16:08:49.134Z,35.60
2022-08-19T16:09:04.749Z,35.33
2022-08-19T16:09:27.698Z,35.37
2022-08-19T16:09:48.888Z,35.45
2022-08-19T16:10:26.108Z,35.47
2022-08-19T16:10:36.908Z,35.58
2022-08-19T16:10:57.951Z,35.69
2022-08-19T16:11:20.100Z,35.77
2022-08-19T16:11:45.234Z,35.90
2022-08-19T16:12:07.004Z,36.03
2022-08-19T16:12:28.050Z,35.88
2022-08-19T16:12:49.100Z,35.71
2022-08-19T16:13:10.138Z,35.75
2022-08-19T16:13:31.208Z,35.84
2022-08-19T16:13:52.255Z,35.96
2022-08-19T16:14:13.299Z,36.17
2022-08-19T16:14:34.363Z,35.98
2022-08-19T16:14:55.412Z,35.78
2022-08-19T16:15:16.458Z,35.67
2022-08-19T16:15:37.524Z,35.73
2022-08-19T16:15:58.573Z,35.78
2022-08-19T16:16:19.623Z,35.88
2022-08-19T16:16:40.680Z,36.38
2022-08-19T16:17:01.759Z,36.13
2022-08-19T16:17:22.803Z,36.20
2022-08-19T16:17:43.867Z,36.32
2022-08-19T16:18:10.828Z,36.18
2022-08-19T16:18:31.879Z,35.96
2022-08-19T16:18:52.940Z,35.95
2022-08-19T16:19:13.984Z,36.01
2022-08-19T16:19:35.045Z,36.06
2022-08-19T16:19:56.163Z,36.08
2022-08-19T16:20:17.190Z,35.96
2022-08-19T16:20:38.373Z,35.85
2022-08-19T16:20:59.423Z,35.81
2022-08-19T16:21:20.475Z,36.12
2022-08-19T16:21:42.060Z,36.11
2022-08-19T16:22:03.131Z,35.87
2022-08-19T16:22:24.182Z,35.87
2022-08-19T16:22:45.232Z,35.94
2022-08-19T16:23:06.287Z,35.97
2022-08-19T16:23:27.347Z,36.06
2022-08-19T16:23:48.396Z,36.12
2022-08-19T16:24:09.449Z,35.94
2022-08-19T16:24:30.504Z,35.87
2022-08-19T16:24:51.551Z,35.96
2022-08-19T16:25:13.123Z,36.15
2022-08-19T16:25:34.168Z,36.32
2022-08-19T16:25:55.339Z,36.36
2022-08-19T16:26:16.392Z,36.16
2022-08-19T16:26:37.441Z,36.19
2022-08-19T16:26:58.485Z,36.19
2022-08-19T16:27:19.537Z,36.20
2022-08-19T16:27:40.587Z,36.11
2022-08-19T16:28:08.707Z,36.13
2022-08-19T16:28:29.851Z,36.25
2022-08-19T16:28:50.899Z,36.22
2022-08-19T16:29:13.123Z,36.22
2022-08-19T16:29:39.418Z,36.07
2022-08-19T16:30:01.371Z,36.07
2022-08-19T16:30:22.418Z,36.06
2022-08-19T16:30:50.965Z,36.03
2022-08-19T16:31:10.464Z,36.23
2022-08-19T16:31:31.516Z,36.21
2022-08-19T16:31:52.562Z,36.26
2022-08-19T16:32:13.606Z,36.33
2022-08-19T16:32:34.655Z,36.22
2022-08-19T16:32:55.703Z,36.28
2022-08-19T16:33:22.673Z,36.19
2022-08-19T16:33:43.721Z,36.15
2022-08-19T16:34:04.771Z,36.15
2022-08-19T16:34:25.842Z,36.24
2022-08-19T16:34:47.006Z,36.29
2022-08-19T16:35:08.054Z,36.26
2022-08-19T16:35:29.108Z,36.06
2022-08-19T16:35:56.063Z,35.77
2022-08-19T16:36:17.153Z,35.85
2022-08-19T16:36:39.170Z,35.88
2022-08-19T16:37:01.060Z,35.85